sensor_id;sensor_type;location;lat;lon;timestamp;temperature;humidity
27423;DHT22;14878;50.778;0.258;2022-07-29T00:00:27;15.90;99.90
27423;DHT22;14878;50.778;0.258;2022-07-29T00:01:28;15.90;99.90
27423;DHT22;14878;50.778;0.258;2022-07-29T00:02:29;15.90;99.90
27423;DHT22;14878;50.778;0.258;2022-07-29T00:03:30;15.90;99.90
27423;DHT22;14878;50.778;0.258;2022-07-29T00:04:30;15.90;99.90
27423;DHT22;14878;50.778;0.258;2022-07-29T00:05:34;15.90;99.90
27423;DHT22;14878;50.778;0.258;2022-07-29T00:06:34;15.90;99.90
27423;DHT22;14878;50.778;0.258;2022-07-29T00:07:35;15.90;99.90
27423;DHT22;14878;50.778;0.258;2022-07-29T00:08:36;16.00;99.90
27423;DHT22;14878;50.778;0.258;2022-07-29T00:09:37;15.90;99.90
27423;DHT22;14878;50.778;0.258;2022-07-29T00:10:38;15.90;99.90
27423;DHT22;14878;50.778;0.258;2022-07-29T00:11:39;16.00;99.90
27423;DHT22;14878;50.778;0.258;2022-07-29T00:12:40;15.90;99.90
27423;DHT22;14878;50.778;0.258;2022-07-29T00:13:43;15.90;99.90
27423;DHT22;14878;50.778;0.258;2022-07-29T00:14:43;15.90;99.90
27423;DHT22;14878;50.778;0.258;2022-07-29T00:15:44;15.90;99.90
27423;DHT22;14878;50.778;0.258;2022-07-29T00:16:45;15.90;99.90
27423;DHT22;14878;50.778;0.258;2022-07-29T00:17:46;15.90;99.90
27423;DHT22;14878;50.778;0.258;2022-07-29T00:18:47;15.90;99.90
27423;DHT22;14878;50.778;0.258;2022-07-29T00:19:47;15.80;99.90
27423;DHT22;14878;50.778;0.258;2022-07-29T00:20:48;15.80;99.90
27423;DHT22;14878;50.778;0.258;2022-07-29T00:21:49;15.80;99.90
27423;DHT22;14878;50.778;0.258;2022-07-29T00:22:50;15.80;99.90
27423;DHT22;14878;50.778;0.258;2022-07-29T00:23:50;15.80;99.90
27423;DHT22;14878;50.778;0.258;2022-07-29T00:24:51;15.90;99.90
27423;DHT22;14878;50.778;0.258;2022-07-29T00:25:52;15.90;99.90
27423;DHT22;14878;50.778;0.258;2022-07-29T00:26:53;15.90;99.90
27423;DHT22;14878;50.778;0.258;2022-07-29T00:27:54;15.90;99.90
27423;DHT22;14878;50.778;0.258;2022-07-29T00:28:54;15.90;99.90
27423;DHT22;14878;50.778;0.258;2022-07-29T00:29:55;15.90;99.90
27423;DHT22;14878;50.778;0.258;2022-07-29T00:30:56;17.50;99.90
27423;DHT22;14878;50.778;0.258;2022-07-29T00:31:56;16.00;99.90
27423;DHT22;14878;50.778;0.258;2022-07-29T00:32:57;16.00;99.90
27423;DHT22;14878;50.778;0.258;2022-07-29T00:33:58;16.00;99.90
27423;DHT22;14878;50.778;0.258;2022-07-29T00:34:59;16.00;99.90
27423;DHT22;14878;50.778;0.258;2022-07-29T00:36:18;15.90;99.90
27423;DHT22;14878;50.778;0.258;2022-07-29T00:37:24;15.80;99.90
27423;DHT22;14878;50.778;0.258;2022-07-29T00:38:25;15.80;99.90
27423;DHT22;14878;50.778;0.258;2022-07-29T00:39:26;15.80;99.90
27423;DHT22;14878;50.778;0.258;2022-07-29T00:40:27;15.80;99.90
27423;DHT22;14878;50.778;0.258;2022-07-29T00:41:30;15.80;99.90
27423;DHT22;14878;50.778;0.258;2022-07-29T00:42:44;15.80;99.90
27423;DHT22;14878;50.778;0.258;2022-07-29T00:43:45;15.70;99.90
27423;DHT22;14878;50.778;0.258;2022-07-29T00:44:46;16.40;99.90
27423;DHT22;14878;50.778;0.258;2022-07-29T00:45:47;15.60;99.90
27423;DHT22;14878;50.778;0.258;2022-07-29T00:46:47;15.60;99.90
27423;DHT22;14878;50.778;0.258;2022-07-29T00:47:48;14.00;99.90
27423;DHT22;14878;50.778;0.258;2022-07-29T00:48:49;15.60;99.90
27423;DHT22;14878;50.778;0.258;2022-07-29T00:49:50;15.50;99.90
27423;DHT22;14878;50.778;0.258;2022-07-29T00:50:51;15.60;99.90
27423;DHT22;14878;50.778;0.258;2022-07-29T00:51:52;15.60;99.90
27423;DHT22;14878;50.778;0.258;2022-07-29T00:52:53;15.50;99.90
27423;DHT22;14878;50.778;0.258;2022-07-29T00:53:54;15.50;99.90
27423;DHT22;14878;50.778;0.258;2022-07-29T00:54:57;15.50;99.90
27423;DHT22;14878;50.778;0.258;2022-07-29T00:55:58;15.50;99.90
27423;DHT22;14878;50.778;0.258;2022-07-29T00:56:59;15.50;99.90
27423;DHT22;14878;50.778;0.258;2022-07-29T00:58:00;15.50;99.90
27423;DHT22;14878;50.778;0.258;2022-07-29T00:59:01;15.50;99.90
27423;DHT22;14878;50.778;0.258;2022-07-29T01:00:06;15.50;99.90
27423;DHT22;14878;50.778;0.258;2022-07-29T01:01:07;15.60;99.90
27423;DHT22;14878;50.778;0.258;2022-07-29T01:02:08;15.60;99.90
27423;DHT22;14878;50.778;0.258;2022-07-29T01:03:09;15.50;99.90
27423;DHT22;14878;50.778;0.258;2022-07-29T01:04:12;15.80;99.90
27423;DHT22;14878;50.778;0.258;2022-07-29T01:05:13;15.60;99.90
27423;DHT22;14878;50.778;0.258;2022-07-29T01:06:15;15.60;99.90
27423;DHT22;14878;50.778;0.258;2022-07-29T01:07:17;15.70;99.90
27423;DHT22;14878;50.778;0.258;2022-07-29T01:08:19;15.70;99.90
27423;DHT22;14878;50.778;0.258;2022-07-29T01:09:21;15.80;99.90
27423;DHT22;14878;50.778;0.258;2022-07-29T01:10:22;15.80;99.90
27423;DHT22;14878;50.778;0.258;2022-07-29T01:11:24;15.80;99.90
27423;DHT22;14878;50.778;0.258;2022-07-29T01:12:26;15.80;99.90
27423;DHT22;14878;50.778;0.258;2022-07-29T01:13:27;15.70;99.90
27423;DHT22;14878;50.778;0.258;2022-07-29T01:14:30;15.70;99.90
27423;DHT22;14878;50.778;0.258;2022-07-29T01:15:33;15.60;99.90
27423;DHT22;14878;50.778;0.258;2022-07-29T01:17:02;15.60;99.90
27423;DHT22;14878;50.778;0.258;2022-07-29T01:18:31;15.60;99.90
27423;DHT22;14878;50.778;0.258;2022-07-29T01:26:45;15.60;99.90
27423;DHT22;14878;50.778;0.258;2022-07-29T01:29:30;15.60;99.90
27423;DHT22;14878;50.778;0.258;2022-07-29T01:30:32;15.70;99.90
27423;DHT22;14878;50.778;0.258;2022-07-29T01:31:51;15.70;99.90
27423;DHT22;14878;50.778;0.258;2022-07-29T01:32:58;15.70;99.90
27423;DHT22;14878;50.778;0.258;2022-07-29T01:34:03;15.70;99.90
27423;DHT22;14878;50.778;0.258;2022-07-29T01:35:26;15.60;99.90
27423;DHT22;14878;50.778;0.258;2022-07-29T01:36:40;15.60;99.90
27423;DHT22;14878;50.778;0.258;2022-07-29T01:39:05;15.60;99.90
27423;DHT22;14878;50.778;0.258;2022-07-29T01:40:13;15.70;99.90
27423;DHT22;14878;50.778;0.258;2022-07-29T01:41:17;15.70;99.90
27423;DHT22;14878;50.778;0.258;2022-07-29T01:42:34;15.70;99.90
27423;DHT22;14878;50.778;0.258;2022-07-29T01:43:56;15.70;99.90
27423;DHT22;14878;50.778;0.258;2022-07-29T01:46:09;15.60;99.90
27423;DHT22;14878;50.778;0.258;2022-07-29T01:47:15;13.30;99.90
27423;DHT22;14878;50.778;0.258;2022-07-29T01:48:41;15.60;99.90
27423;DHT22;14878;50.778;0.258;2022-07-29T01:49:47;15.60;99.90
27423;DHT22;14878;50.778;0.258;2022-07-29T01:51:03;15.50;99.90
27423;DHT22;14878;50.778;0.258;2022-07-29T01:52:13;15.50;99.90
27423;DHT22;14878;50.778;0.258;2022-07-29T01:53:26;15.50;99.90
27423;DHT22;14878;50.778;0.258;2022-07-29T01:54:38;15.60;99.90
27423;DHT22;14878;50.778;0.258;2022-07-29T01:55:44;15.50;99.90
27423;DHT22;14878;50.778;0.258;2022-07-29T01:56:49;15.50;99.90
27423;DHT22;14878;50.778;0.258;2022-07-29T01:57:51;15.50;99.90
27423;DHT22;14878;50.778;0.258;2022-07-29T01:58:53;15.50;99.90
27423;DHT22;14878;50.778;0.258;2022-07-29T01:59:56;15.50;99.90
27423;DHT22;14878;50.778;0.258;2022-07-29T02:01:00;15.50;99.90
27423;DHT22;14878;50.778;0.258;2022-07-29T02:02:01;15.50;99.90
27423;DHT22;14878;50.778;0.258;2022-07-29T02:03:05;15.50;99.90
27423;DHT22;14878;50.778;0.258;2022-07-29T02:04:09;15.50;99.90
27423;DHT22;14878;50.778;0.258;2022-07-29T02:05:14;15.40;99.90
27423;DHT22;14878;50.778;0.258;2022-07-29T02:06:18;15.50;99.90
27423;DHT22;14878;50.778;0.258;2022-07-29T02:07:21;15.50;99.90
27423;DHT22;14878;50.778;0.258;2022-07-29T02:08:24;15.50;99.90
27423;DHT22;14878;50.778;0.258;2022-07-29T02:09:26;15.60;99.90
27423;DHT22;14878;50.778;0.258;2022-07-29T02:10:29;15.60;99.90
27423;DHT22;14878;50.778;0.258;2022-07-29T02:11:34;15.70;99.90
27423;DHT22;14878;50.778;0.258;2022-07-29T02:12:37;15.70;99.90
27423;DHT22;14878;50.778;0.258;2022-07-29T02:13:40;15.60;99.90
27423;DHT22;14878;50.778;0.258;2022-07-29T02:14:45;15.70;99.90
27423;DHT22;14878;50.778;0.258;2022-07-29T02:15:47;15.60;99.90
27423;DHT22;14878;50.778;0.258;2022-07-29T02:16:53;15.60;99.90
27423;DHT22;14878;50.778;0.258;2022-07-29T02:18:16;15.70;99.90
27423;DHT22;14878;50.778;0.258;2022-07-29T02:19:18;15.60;99.90
27423;DHT22;14878;50.778;0.258;2022-07-29T02:20:20;15.60;99.90
27423;DHT22;14878;50.778;0.258;2022-07-29T02:21:24;15.60;99.90
27423;DHT22;14878;50.778;0.258;2022-07-29T02:22:28;15.60;99.90
27423;DHT22;14878;50.778;0.258;2022-07-29T02:23:31;15.70;99.90
27423;DHT22;14878;50.778;0.258;2022-07-29T02:24:34;15.70;99.90
27423;DHT22;14878;50.778;0.258;2022-07-29T02:25:37;15.70;99.90
27423;DHT22;14878;50.778;0.258;2022-07-29T02:26:40;15.70;99.90
27423;DHT22;14878;50.778;0.258;2022-07-29T02:27:43;15.70;99.90
27423;DHT22;14878;50.778;0.258;2022-07-29T02:28:46;15.70;99.90
27423;DHT22;14878;50.778;0.258;2022-07-29T02:29:49;15.70;99.90
27423;DHT22;14878;50.778;0.258;2022-07-29T02:30:52;15.70;99.90
27423;DHT22;14878;50.778;0.258;2022-07-29T02:31:53;15.70;99.90
27423;DHT22;14878;50.778;0.258;2022-07-29T02:32:55;15.80;99.90
27423;DHT22;14878;50.778;0.258;2022-07-29T02:33:57;15.80;99.90
27423;DHT22;14878;50.778;0.258;2022-07-29T02:34:59;15.70;99.90
27423;DHT22;14878;50.778;0.258;2022-07-29T02:36:01;15.70;99.90
27423;DHT22;14878;50.778;0.258;2022-07-29T02:37:03;15.70;99.90
27423;DHT22;14878;50.778;0.258;2022-07-29T02:38:05;15.70;99.90
27423;DHT22;14878;50.778;0.258;2022-07-29T02:39:26;15.70;99.90
27423;DHT22;14878;50.778;0.258;2022-07-29T02:40:27;15.60;99.90
27423;DHT22;14878;50.778;0.258;2022-07-29T02:42:31;15.70;99.90
27423;DHT22;14878;50.778;0.258;2022-07-29T02:43:34;13.10;99.90
27423;DHT22;14878;50.778;0.258;2022-07-29T02:44:35;15.70;99.90
27423;DHT22;14878;50.778;0.258;2022-07-29T02:45:37;15.70;99.90
27423;DHT22;14878;50.778;0.258;2022-07-29T02:46:43;15.70;99.90
27423;DHT22;14878;50.778;0.258;2022-07-29T02:47:48;15.70;99.90
27423;DHT22;14878;50.778;0.258;2022-07-29T02:49:15;15.70;99.90
27423;DHT22;14878;50.778;0.258;2022-07-29T02:50:22;15.60;99.90
27423;DHT22;14878;50.778;0.258;2022-07-29T02:51:44;15.60;99.90
27423;DHT22;14878;50.778;0.258;2022-07-29T02:54:04;15.60;99.90
27423;DHT22;14878;50.778;0.258;2022-07-29T02:55:37;15.70;99.90
27423;DHT22;14878;50.778;0.258;2022-07-29T02:56:39;15.70;99.90
27423;DHT22;14878;50.778;0.258;2022-07-29T02:57:51;15.70;99.90
27423;DHT22;14878;50.778;0.258;2022-07-29T02:58:58;15.70;99.90
27423;DHT22;14878;50.778;0.258;2022-07-29T03:00:05;15.70;99.90
27423;DHT22;14878;50.778;0.258;2022-07-29T03:01:20;15.70;99.90
27423;DHT22;14878;50.778;0.258;2022-07-29T03:02:22;15.70;99.90
27423;DHT22;14878;50.778;0.258;2022-07-29T03:03:25;15.70;99.90
27423;DHT22;14878;50.778;0.258;2022-07-29T03:04:28;15.70;99.90
27423;DHT22;14878;50.778;0.258;2022-07-29T03:05:31;15.60;99.90
27423;DHT22;14878;50.778;0.258;2022-07-29T03:06:33;15.70;99.90
27423;DHT22;14878;50.778;0.258;2022-07-29T03:07:35;15.70;99.90
27423;DHT22;14878;50.778;0.258;2022-07-29T03:08:36;15.60;99.90
27423;DHT22;14878;50.778;0.258;2022-07-29T03:09:38;15.60;99.90
27423;DHT22;14878;50.778;0.258;2022-07-29T03:10:43;15.60;99.90
27423;DHT22;14878;50.778;0.258;2022-07-29T03:11:46;15.60;99.90
27423;DHT22;14878;50.778;0.258;2022-07-29T03:12:47;15.70;99.90
27423;DHT22;14878;50.778;0.258;2022-07-29T03:13:49;15.70;99.90
27423;DHT22;14878;50.778;0.258;2022-07-29T03:14:50;15.70;99.90
27423;DHT22;14878;50.778;0.258;2022-07-29T03:15:52;15.70;99.90
27423;DHT22;14878;50.778;0.258;2022-07-29T03:16:53;15.70;99.90
27423;DHT22;14878;50.778;0.258;2022-07-29T03:17:55;15.80;99.90
27423;DHT22;14878;50.778;0.258;2022-07-29T03:18:56;15.80;99.90
27423;DHT22;14878;50.778;0.258;2022-07-29T03:19:57;15.80;99.90
27423;DHT22;14878;50.778;0.258;2022-07-29T03:20:59;15.70;99.90
27423;DHT22;14878;50.778;0.258;2022-07-29T03:22:00;15.70;99.90
27423;DHT22;14878;50.778;0.258;2022-07-29T03:23:01;15.60;99.90
27423;DHT22;14878;50.778;0.258;2022-07-29T03:24:02;15.70;99.90
27423;DHT22;14878;50.778;0.258;2022-07-29T03:25:09;15.70;99.90
27423;DHT22;14878;50.778;0.258;2022-07-29T03:26:10;15.70;99.90
27423;DHT22;14878;50.778;0.258;2022-07-29T03:27:11;15.80;99.90
27423;DHT22;14878;50.778;0.258;2022-07-29T03:28:12;17.50;99.90
27423;DHT22;14878;50.778;0.258;2022-07-29T03:29:13;15.70;99.90
27423;DHT22;14878;50.778;0.258;2022-07-29T03:30:14;15.70;99.90
27423;DHT22;14878;50.778;0.258;2022-07-29T03:31:16;15.60;99.90
27423;DHT22;14878;50.778;0.258;2022-07-29T03:32:16;15.60;99.90
27423;DHT22;14878;50.778;0.258;2022-07-29T03:33:17;15.60;99.90
27423;DHT22;14878;50.778;0.258;2022-07-29T03:34:18;15.70;99.90
27423;DHT22;14878;50.778;0.258;2022-07-29T03:35:19;15.70;99.90
27423;DHT22;14878;50.778;0.258;2022-07-29T03:36:20;15.60;99.90
27423;DHT22;14878;50.778;0.258;2022-07-29T03:37:21;15.60;99.90
27423;DHT22;14878;50.778;0.258;2022-07-29T03:38:25;15.60;99.90
27423;DHT22;14878;50.778;0.258;2022-07-29T03:39:31;15.60;99.90
27423;DHT22;14878;50.778;0.258;2022-07-29T03:40:44;15.70;99.90
27423;DHT22;14878;50.778;0.258;2022-07-29T03:41:48;15.70;99.90
27423;DHT22;14878;50.778;0.258;2022-07-29T03:42:51;15.70;99.90
27423;DHT22;14878;50.778;0.258;2022-07-29T03:43:55;15.70;99.90
27423;DHT22;14878;50.778;0.258;2022-07-29T03:44:58;15.60;99.90
27423;DHT22;14878;50.778;0.258;2022-07-29T03:46:01;15.70;99.90
27423;DHT22;14878;50.778;0.258;2022-07-29T03:47:04;15.70;99.90
27423;DHT22;14878;50.778;0.258;2022-07-29T03:48:08;15.70;99.90
27423;DHT22;14878;50.778;0.258;2022-07-29T03:49:11;15.70;99.90
27423;DHT22;14878;50.778;0.258;2022-07-29T03:50:14;15.70;99.90
27423;DHT22;14878;50.778;0.258;2022-07-29T03:51:15;15.70;99.90
27423;DHT22;14878;50.778;0.258;2022-07-29T03:52:16;15.60;99.90
27423;DHT22;14878;50.778;0.258;2022-07-29T03:53:17;15.60;99.90
27423;DHT22;14878;50.778;0.258;2022-07-29T03:54:18;15.60;99.90
27423;DHT22;14878;50.778;0.258;2022-07-29T03:55:19;15.40;99.90
27423;DHT22;14878;50.778;0.258;2022-07-29T03:56:21;15.60;99.90
27423;DHT22;14878;50.778;0.258;2022-07-29T03:57:25;15.60;99.90
27423;DHT22;14878;50.778;0.258;2022-07-29T03:58:28;15.70;99.90
27423;DHT22;14878;50.778;0.258;2022-07-29T03:59:32;15.60;99.90
27423;DHT22;14878;50.778;0.258;2022-07-29T04:00:35;15.60;99.90
27423;DHT22;14878;50.778;0.258;2022-07-29T04:01:37;15.60;99.90
27423;DHT22;14878;50.778;0.258;2022-07-29T04:02:39;15.60;99.90
27423;DHT22;14878;50.778;0.258;2022-07-29T04:03:40;15.70;99.90
27423;DHT22;14878;50.778;0.258;2022-07-29T04:04:41;15.60;99.90
27423;DHT22;14878;50.778;0.258;2022-07-29T04:05:42;15.70;99.90
27423;DHT22;14878;50.778;0.258;2022-07-29T04:06:44;15.70;99.90
27423;DHT22;14878;50.778;0.258;2022-07-29T04:07:46;15.70;99.90
27423;DHT22;14878;50.778;0.258;2022-07-29T04:08:48;15.70;99.90
27423;DHT22;14878;50.778;0.258;2022-07-29T04:09:49;15.70;99.90
27423;DHT22;14878;50.778;0.258;2022-07-29T04:10:49;15.70;99.90
27423;DHT22;14878;50.778;0.258;2022-07-29T04:11:53;15.70;99.90
27423;DHT22;14878;50.778;0.258;2022-07-29T04:12:54;15.70;99.90
27423;DHT22;14878;50.778;0.258;2022-07-29T04:13:55;15.60;99.90
27423;DHT22;14878;50.778;0.258;2022-07-29T04:14:55;15.70;99.90
27423;DHT22;14878;50.778;0.258;2022-07-29T04:15:56;15.70;99.90
27423;DHT22;14878;50.778;0.258;2022-07-29T04:16:57;15.80;99.90
27423;DHT22;14878;50.778;0.258;2022-07-29T04:17:58;15.80;99.90
27423;DHT22;14878;50.778;0.258;2022-07-29T04:18:59;15.80;99.90
27423;DHT22;14878;50.778;0.258;2022-07-29T04:20:00;15.80;99.90
27423;DHT22;14878;50.778;0.258;2022-07-29T04:21:01;15.70;99.90
27423;DHT22;14878;50.778;0.258;2022-07-29T04:22:02;15.70;99.90
27423;DHT22;14878;50.778;0.258;2022-07-29T04:23:03;15.70;99.90
27423;DHT22;14878;50.778;0.258;2022-07-29T04:24:05;15.70;99.90
27423;DHT22;14878;50.778;0.258;2022-07-29T04:25:06;15.70;99.90
27423;DHT22;14878;50.778;0.258;2022-07-29T04:26:07;15.70;99.90
27423;DHT22;14878;50.778;0.258;2022-07-29T04:27:11;15.80;99.90
27423;DHT22;14878;50.778;0.258;2022-07-29T04:28:12;15.80;99.90
27423;DHT22;14878;50.778;0.258;2022-07-29T04:29:13;15.80;99.90
27423;DHT22;14878;50.778;0.258;2022-07-29T04:30:14;15.80;99.90
27423;DHT22;14878;50.778;0.258;2022-07-29T04:31:15;15.90;99.90
27423;DHT22;14878;50.778;0.258;2022-07-29T04:32:16;15.80;99.90
27423;DHT22;14878;50.778;0.258;2022-07-29T04:33:17;15.90;99.90
27423;DHT22;14878;50.778;0.258;2022-07-29T04:34:17;15.90;99.90
27423;DHT22;14878;50.778;0.258;2022-07-29T04:35:19;15.90;99.90
27423;DHT22;14878;50.778;0.258;2022-07-29T04:36:20;15.90;99.90
27423;DHT22;14878;50.778;0.258;2022-07-29T04:37:21;15.90;99.90
27423;DHT22;14878;50.778;0.258;2022-07-29T04:38:21;16.00;99.90
27423;DHT22;14878;50.778;0.258;2022-07-29T04:39:22;16.10;99.90
27423;DHT22;14878;50.778;0.258;2022-07-29T04:40:23;16.70;99.90
27423;DHT22;14878;50.778;0.258;2022-07-29T04:41:24;16.10;99.90
27423;DHT22;14878;50.778;0.258;2022-07-29T04:42:25;16.10;99.90
27423;DHT22;14878;50.778;0.258;2022-07-29T04:43:28;16.10;99.90
27423;DHT22;14878;50.778;0.258;2022-07-29T04:44:28;16.10;99.90
27423;DHT22;14878;50.778;0.258;2022-07-29T04:45:29;16.10;99.90
27423;DHT22;14878;50.778;0.258;2022-07-29T04:46:30;16.10;99.90
27423;DHT22;14878;50.778;0.258;2022-07-29T04:47:31;16.20;99.90
27423;DHT22;14878;50.778;0.258;2022-07-29T04:48:32;16.20;99.90
27423;DHT22;14878;50.778;0.258;2022-07-29T04:49:33;16.20;99.90
27423;DHT22;14878;50.778;0.258;2022-07-29T04:50:34;16.20;99.90
27423;DHT22;14878;50.778;0.258;2022-07-29T04:51:35;16.20;99.90
27423;DHT22;14878;50.778;0.258;2022-07-29T04:52:35;16.20;99.90
27423;DHT22;14878;50.778;0.258;2022-07-29T04:53:37;16.30;99.90
27423;DHT22;14878;50.778;0.258;2022-07-29T04:54:37;16.30;99.90
27423;DHT22;14878;50.778;0.258;2022-07-29T04:55:38;16.20;99.90
27423;DHT22;14878;50.778;0.258;2022-07-29T04:56:39;16.40;99.90
27423;DHT22;14878;50.778;0.258;2022-07-29T04:57:40;16.40;99.90
27423;DHT22;14878;50.778;0.258;2022-07-29T04:58:40;16.40;99.90
27423;DHT22;14878;50.778;0.258;2022-07-29T04:59:41;16.40;99.90
27423;DHT22;14878;50.778;0.258;2022-07-29T05:00:42;16.50;99.90
27423;DHT22;14878;50.778;0.258;2022-07-29T05:01:43;16.50;99.90
27423;DHT22;14878;50.778;0.258;2022-07-29T05:02:44;16.60;99.90
27423;DHT22;14878;50.778;0.258;2022-07-29T05:03:45;16.60;99.90
27423;DHT22;14878;50.778;0.258;2022-07-29T05:04:46;16.50;99.90
27423;DHT22;14878;50.778;0.258;2022-07-29T05:05:46;16.50;99.90
27423;DHT22;14878;50.778;0.258;2022-07-29T05:06:47;16.50;99.90
27423;DHT22;14878;50.778;0.258;2022-07-29T05:07:48;16.50;99.90
27423;DHT22;14878;50.778;0.258;2022-07-29T05:08:49;16.60;99.90
27423;DHT22;14878;50.778;0.258;2022-07-29T05:09:50;16.60;99.90
27423;DHT22;14878;50.778;0.258;2022-07-29T05:10:50;16.60;99.90
27423;DHT22;14878;50.778;0.258;2022-07-29T05:11:51;16.60;99.90
27423;DHT22;14878;50.778;0.258;2022-07-29T05:12:52;16.70;99.90
27423;DHT22;14878;50.778;0.258;2022-07-29T05:13:53;16.60;99.90
27423;DHT22;14878;50.778;0.258;2022-07-29T05:14:54;16.70;99.90
27423;DHT22;14878;50.778;0.258;2022-07-29T05:15:55;16.70;99.90
27423;DHT22;14878;50.778;0.258;2022-07-29T05:16:56;16.70;99.90
27423;DHT22;14878;50.778;0.258;2022-07-29T05:17:57;16.80;99.90
27423;DHT22;14878;50.778;0.258;2022-07-29T05:18:58;16.70;99.90
27423;DHT22;14878;50.778;0.258;2022-07-29T05:19:59;16.70;99.90
27423;DHT22;14878;50.778;0.258;2022-07-29T05:21:00;16.80;99.90
27423;DHT22;14878;50.778;0.258;2022-07-29T05:22:00;16.90;99.90
27423;DHT22;14878;50.778;0.258;2022-07-29T05:23:02;16.80;99.90
27423;DHT22;14878;50.778;0.258;2022-07-29T05:24:03;16.80;99.90
27423;DHT22;14878;50.778;0.258;2022-07-29T05:25:04;16.80;99.90
27423;DHT22;14878;50.778;0.258;2022-07-29T05:26:06;16.90;99.90
27423;DHT22;14878;50.778;0.258;2022-07-29T05:27:06;17.10;99.90
27423;DHT22;14878;50.778;0.258;2022-07-29T05:28:07;17.00;99.90
27423;DHT22;14878;50.778;0.258;2022-07-29T05:29:08;17.10;99.90
27423;DHT22;14878;50.778;0.258;2022-07-29T05:30:12;17.20;99.90
27423;DHT22;14878;50.778;0.258;2022-07-29T05:31:13;17.20;99.90
27423;DHT22;14878;50.778;0.258;2022-07-29T05:32:15;17.30;99.90
27423;DHT22;14878;50.778;0.258;2022-07-29T05:33:16;16.80;99.90
27423;DHT22;14878;50.778;0.258;2022-07-29T05:34:16;17.40;99.90
27423;DHT22;14878;50.778;0.258;2022-07-29T05:35:17;17.40;99.90
27423;DHT22;14878;50.778;0.258;2022-07-29T05:36:18;17.50;99.90
27423;DHT22;14878;50.778;0.258;2022-07-29T05:37:19;17.60;99.90
27423;DHT22;14878;50.778;0.258;2022-07-29T05:38:20;17.50;99.90
27423;DHT22;14878;50.778;0.258;2022-07-29T05:39:22;17.50;99.90
27423;DHT22;14878;50.778;0.258;2022-07-29T05:40:23;17.40;99.90
27423;DHT22;14878;50.778;0.258;2022-07-29T05:41:23;17.40;99.90
27423;DHT22;14878;50.778;0.258;2022-07-29T05:42:25;17.40;99.90
27423;DHT22;14878;50.778;0.258;2022-07-29T05:43:29;17.40;99.90
27423;DHT22;14878;50.778;0.258;2022-07-29T05:44:30;17.40;99.90
27423;DHT22;14878;50.778;0.258;2022-07-29T05:45:31;17.40;99.90
27423;DHT22;14878;50.778;0.258;2022-07-29T05:46:31;19.20;99.90
27423;DHT22;14878;50.778;0.258;2022-07-29T05:47:32;17.30;99.90
27423;DHT22;14878;50.778;0.258;2022-07-29T05:48:33;17.40;99.90
27423;DHT22;14878;50.778;0.258;2022-07-29T05:49:34;17.40;99.90
27423;DHT22;14878;50.778;0.258;2022-07-29T05:50:35;17.50;99.90
27423;DHT22;14878;50.778;0.258;2022-07-29T05:51:35;17.60;99.90
27423;DHT22;14878;50.778;0.258;2022-07-29T05:52:36;17.50;99.90
27423;DHT22;14878;50.778;0.258;2022-07-29T05:53:37;17.40;99.90
27423;DHT22;14878;50.778;0.258;2022-07-29T05:54:38;17.50;99.90
27423;DHT22;14878;50.778;0.258;2022-07-29T05:55:39;17.40;99.90
27423;DHT22;14878;50.778;0.258;2022-07-29T05:56:40;17.40;99.90
27423;DHT22;14878;50.778;0.258;2022-07-29T05:57:43;17.50;99.90
27423;DHT22;14878;50.778;0.258;2022-07-29T05:58:48;17.70;99.90
27423;DHT22;14878;50.778;0.258;2022-07-29T05:59:49;17.40;99.90
27423;DHT22;14878;50.778;0.258;2022-07-29T06:00:50;17.50;99.90
27423;DHT22;14878;50.778;0.258;2022-07-29T06:01:51;17.60;99.90
27423;DHT22;14878;50.778;0.258;2022-07-29T06:02:51;17.60;99.90
27423;DHT22;14878;50.778;0.258;2022-07-29T06:03:52;17.70;99.90
27423;DHT22;14878;50.778;0.258;2022-07-29T06:04:53;17.70;99.90
27423;DHT22;14878;50.778;0.258;2022-07-29T06:05:54;17.60;99.90
27423;DHT22;14878;50.778;0.258;2022-07-29T06:06:55;17.60;99.90
27423;DHT22;14878;50.778;0.258;2022-07-29T06:07:55;17.50;99.90
27423;DHT22;14878;50.778;0.258;2022-07-29T06:08:56;17.50;99.90
27423;DHT22;14878;50.778;0.258;2022-07-29T06:09:57;17.50;99.90
27423;DHT22;14878;50.778;0.258;2022-07-29T06:10:58;17.40;99.90
27423;DHT22;14878;50.778;0.258;2022-07-29T06:11:59;17.40;99.90
27423;DHT22;14878;50.778;0.258;2022-07-29T06:12:59;17.40;99.90
27423;DHT22;14878;50.778;0.258;2022-07-29T06:14:00;17.40;99.90
27423;DHT22;14878;50.778;0.258;2022-07-29T06:15:03;17.30;99.90
27423;DHT22;14878;50.778;0.258;2022-07-29T06:16:04;17.40;99.90
27423;DHT22;14878;50.778;0.258;2022-07-29T06:17:05;17.50;99.90
27423;DHT22;14878;50.778;0.258;2022-07-29T06:18:06;17.50;99.90
27423;DHT22;14878;50.778;0.258;2022-07-29T06:19:09;17.60;99.90
27423;DHT22;14878;50.778;0.258;2022-07-29T06:20:13;17.60;99.90
27423;DHT22;14878;50.778;0.258;2022-07-29T06:21:13;17.70;99.90
27423;DHT22;14878;50.778;0.258;2022-07-29T06:22:20;17.70;99.90
27423;DHT22;14878;50.778;0.258;2022-07-29T06:23:21;17.80;99.90
27423;DHT22;14878;50.778;0.258;2022-07-29T06:24:22;17.90;99.90
27423;DHT22;14878;50.778;0.258;2022-07-29T06:25:23;17.90;99.90
27423;DHT22;14878;50.778;0.258;2022-07-29T06:26:23;18.10;99.90
27423;DHT22;14878;50.778;0.258;2022-07-29T06:27:24;18.30;99.90
27423;DHT22;14878;50.778;0.258;2022-07-29T06:28:25;18.60;99.90
27423;DHT22;14878;50.778;0.258;2022-07-29T06:29:26;18.90;99.90
27423;DHT22;14878;50.778;0.258;2022-07-29T06:30:27;19.30;99.90
27423;DHT22;14878;50.778;0.258;2022-07-29T06:31:29;19.70;99.90
27423;DHT22;14878;50.778;0.258;2022-07-29T06:32:29;20.00;99.90
27423;DHT22;14878;50.778;0.258;2022-07-29T06:33:31;20.20;99.90
27423;DHT22;14878;50.778;0.258;2022-07-29T06:34:32;20.50;99.90
27423;DHT22;14878;50.778;0.258;2022-07-29T06:35:34;20.50;99.90
27423;DHT22;14878;50.778;0.258;2022-07-29T06:36:36;20.40;99.90
27423;DHT22;14878;50.778;0.258;2022-07-29T06:37:37;20.30;99.90
27423;DHT22;14878;50.778;0.258;2022-07-29T06:38:38;20.40;99.90
27423;DHT22;14878;50.778;0.258;2022-07-29T06:39:39;20.50;99.90
27423;DHT22;14878;50.778;0.258;2022-07-29T06:40:43;20.30;99.90
27423;DHT22;14878;50.778;0.258;2022-07-29T06:42:03;19.90;99.90
27423;DHT22;14878;50.778;0.258;2022-07-29T06:43:04;20.00;99.90
27423;DHT22;14878;50.778;0.258;2022-07-29T06:44:05;20.20;99.90
27423;DHT22;14878;50.778;0.258;2022-07-29T06:45:06;20.10;99.90
27423;DHT22;14878;50.778;0.258;2022-07-29T06:46:13;21.00;99.90
27423;DHT22;14878;50.778;0.258;2022-07-29T06:47:14;20.20;99.90
27423;DHT22;14878;50.778;0.258;2022-07-29T06:48:14;20.20;99.90
27423;DHT22;14878;50.778;0.258;2022-07-29T06:49:18;20.10;99.90
27423;DHT22;14878;50.778;0.258;2022-07-29T06:50:19;20.20;99.90